Terminal Aerodrome Forecast
Issued by NWS

Home | Current Version | Previous Version | Text Only | Print | Product List | Glossary Off
Versions: 1 2 3 4 5 6 7 8 9 10 11 12 13

000
FTUS43 KBIS 191100
TAFMOT
TAF
KMOT 191133Z 1912/2012 28020G28KT P6SM -SHSN BKN025 OVC045
     FM192100 29018G25KT P6SM BKN035
     FM200100 28009KT P6SM SCT035=

USA.gov is the U.S. government's official web portal to all federal, state and local government web resources and services.